Time;durP1;ratioP1;P1;durP2;ratioP2;P2;SDS_P1;SDS_P2;PMS_P1;PMS_P2;Temp;Humidity;BMP_temperature;BMP_pressure;BME280_temperature;BME280_humidity;BME280_pressure;Samples;Min_cycle;Max_cycle;Signal;HPM_P1;HPM_P2
2023/01/21 00:01:28;;;;;;;17.80;13.10;;;;;;;;;;6211436;23;20183;-72
2023/01/21 00:03:53;;;;;;;19.93;14.30;;;;;;;;;;6210092;23;20143;-72
2023/01/21 00:06:18;;;;;;;15.67;13.10;;;;;;;;;;6210637;23;20167;-72
2023/01/21 00:08:43;;;;;;;17.10;14.03;;;;;;;;;;6209207;23;20144;-72
2023/01/21 00:11:11;;;;;;;19.67;14.50;;;;;;;;;;6212010;23;20226;-71
2023/01/21 00:13:36;;;;;;;16.13;13.70;;;;;;;;;;6211566;23;20278;-73
2023/01/21 00:16:03;;;;;;;20.20;14.60;;;;;;;;;;6199635;23;20471;-72
2023/01/21 00:18:28;;;;;;;19.90;15.00;;;;;;;;;;6183325;23;20147;-72
2023/01/21 00:20:53;;;;;;;19.40;15.33;;;;;;;;;;6209995;23;20407;-72
2023/01/21 00:23:19;;;;;;;19.50;14.67;;;;;;;;;;6209778;23;20139;-73
2023/01/21 00:25:44;;;;;;;18.27;14.57;;;;;;;;;;6207744;23;20211;-72
2023/01/21 00:28:09;;;;;;;20.77;14.90;;;;;;;;;;6181203;23;20147;-72
2023/01/21 00:30:35;;;;;;;18.53;13.67;;;;;;;;;;6210559;23;20151;-72
2023/01/21 00:33:01;;;;;;;18.30;14.93;;;;;;;;;;6183658;23;20230;-73
2023/01/21 00:35:26;;;;;;;19.10;14.63;;;;;;;;;;6209748;23;20881;-76
2023/01/21 00:37:51;;;;;;;18.40;13.80;;;;;;;;;;6209973;23;20148;-73
2023/01/21 00:40:17;;;;;;;19.00;14.00;;;;;;;;;;6210911;23;20178;-72
2023/01/21 00:42:42;;;;;;;19.00;14.40;;;;;;;;;;6210513;23;20143;-72
2023/01/21 00:45:08;;;;;;;18.10;13.80;;;;;;;;;;6208010;23;20168;-73
2023/01/21 00:47:33;;;;;;;17.77;14.77;;;;;;;;;;6210056;23;20195;-72
2023/01/21 00:49:58;;;;;;;17.23;13.70;;;;;;;;;;6184814;23;20164;-73
2023/01/21 00:52:24;;;;;;;18.67;14.00;;;;;;;;;;6183530;23;20159;-72
2023/01/21 00:54:49;;;;;;;18.23;14.20;;;;;;;;;;6210852;23;20163;-73
2023/01/21 00:57:15;;;;;;;19.00;15.17;;;;;;;;;;6208550;23;20148;-74
2023/01/21 00:59:40;;;;;;;19.20;15.70;;;;;;;;;;6183097;23;20195;-73
2023/01/21 01:02:05;;;;;;;22.50;16.53;;;;;;;;;;6208994;23;20245;-72
2023/01/21 01:04:31;;;;;;;19.53;14.40;;;;;;;;;;6211151;23;20151;-72
2023/01/21 01:06:56;;;;;;;18.30;15.13;;;;;;;;;;6210440;23;20143;-73
2023/01/21 01:09:21;;;;;;;17.10;13.73;;;;;;;;;;6208167;23;20151;-73
2023/01/21 01:11:47;;;;;;;16.47;13.53;;;;;;;;;;6182813;23;20174;-73
2023/01/21 01:14:15;;;;;;;20.13;14.30;;;;;;;;;;6211153;23;20151;-73
2023/01/21 01:16:40;;;;;;;20.43;14.40;;;;;;;;;;6210532;23;20178;-73
2023/01/21 01:19:06;;;;;;;19.27;14.57;;;;;;;;;;6181474;23;20465;-73
2023/01/21 01:21:31;;;;;;;17.93;14.63;;;;;;;;;;6182955;23;20239;-73
2023/01/21 01:24:01;;;;;;;17.10;14.60;;;;;;;;;;6183978;23;20194;-73
2023/01/21 01:26:27;;;;;;;19.17;14.60;;;;;;;;;;6208920;23;20164;-74
2023/01/21 01:28:52;;;;;;;22.13;16.73;;;;;;;;;;6207617;23;20457;-73
2023/01/21 01:31:18;;;;;;;30.00;19.63;;;;;;;;;;6210535;23;20517;-73
2023/01/21 01:33:43;;;;;;;21.53;17.03;;;;;;;;;;6210683;23;20182;-73
2023/01/21 01:36:11;;;;;;;17.73;14.63;;;;;;;;;;6210073;23;20395;-73
2023/01/21 01:38:36;;;;;;;18.63;14.40;;;;;;;;;;6209700;23;20147;-72
2023/01/21 01:41:02;;;;;;;23.27;14.70;;;;;;;;;;6208938;23;20419;-73
2023/01/21 01:43:46;;;;;;;19.67;15.33;;;;;;;;;;6183191;23;20541;-72
2023/01/21 01:46:21;;;;;;;20.57;15.87;;;;;;;;;;6208595;23;20418;-72
2023/01/21 01:48:48;;;;;;;19.07;14.63;;;;;;;;;;6180430;23;20689;-72
2023/01/21 01:51:16;;;;;;;22.13;16.40;;;;;;;;;;6211009;23;20376;-72
2023/01/21 01:53:42;;;;;;;21.00;15.80;;;;;;;;;;6210474;23;21275;-72
2023/01/21 01:56:08;;;;;;;18.53;14.30;;;;;;;;;;6208326;23;20400;-73
2023/01/21 01:58:33;;;;;;;18.40;13.93;;;;;;;;;;6183165;23;20383;-73
2023/01/21 02:00:59;;;;;;;20.23;14.87;;;;;;;;;;6208536;23;20172;-73
2023/01/21 02:03:45;;;;;;;20.40;14.50;;;;;;;;;;6210030;23;20144;-73
2023/01/21 02:06:11;;;;;;;18.73;14.63;;;;;;;;;;6209759;23;20614;-73
2023/01/21 02:08:36;;;;;;;19.60;14.93;;;;;;;;;;6207290;23;20370;-73
2023/01/21 02:11:05;;;;;;;24.07;16.30;;;;;;;;;;6210101;23;20371;-73
2023/01/21 02:13:32;;;;;;;22.47;16.40;;;;;;;;;;6207733;23;20148;-73
2023/01/21 02:15:57;;;;;;;20.97;15.80;;;;;;;;;;6194542;23;20505;-73
2023/01/21 02:18:39;;;;;;;20.20;16.30;;;;;;;;;;6206960;23;20398;-73
2023/01/21 02:21:30;;;;;;;21.53;15.83;;;;;;;;;;6208901;23;20614;-74
2023/01/21 02:24:20;;;;;;;22.30;15.93;;;;;;;;;;6206671;23;20351;-74
2023/01/21 02:27:03;;;;;;;23.67;16.77;;;;;;;;;;6208695;23;20415;-73
2023/01/21 02:29:44;;;;;;;20.13;14.60;;;;;;;;;;6209564;23;20900;-73
2023/01/21 02:32:24;;;;;;;23.53;15.30;;;;;;;;;;6209783;23;20442;-73
2023/01/21 02:34:58;;;;;;;19.23;15.20;;;;;;;;;;6207040;23;20409;-74
2023/01/21 02:37:41;;;;;;;20.80;14.77;;;;;;;;;;6209760;23;20370;-73
2023/01/21 02:40:33;;;;;;;20.70;15.37;;;;;;;;;;6205364;23;20407;-74
2023/01/21 02:43:04;;;;;;;21.80;15.43;;;;;;;;;;6208520;23;20385;-74
2023/01/21 02:45:35;;;;;;;18.53;14.93;;;;;;;;;;6210142;23;20444;-74
2023/01/21 02:48:21;;;;;;;21.30;15.00;;;;;;;;;;6211326;23;20434;-74
2023/01/21 02:50:50;;;;;;;17.53;13.47;;;;;;;;;;6210692;23;20378;-74
2023/01/21 02:53:23;;;;;;;22.63;15.70;;;;;;;;;;6212618;23;20363;-73
2023/01/21 02:55:49;;;;;;;22.53;14.87;;;;;;;;;;6209270;23;20391;-73
2023/01/21 02:58:14;;;;;;;20.40;14.93;;;;;;;;;;6209326;23;20425;-74
2023/01/21 03:00:52;;;;;;;23.10;16.53;;;;;;;;;;6210431;23;20179;-74
2023/01/21 03:03:24;;;;;;;20.83;14.13;;;;;;;;;;6211181;23;20823;-74
2023/01/21 03:06:05;;;;;;;20.23;14.20;;;;;;;;;;6209736;23;20502;-74
2023/01/21 03:08:43;;;;;;;20.93;15.07;;;;;;;;;;6206466;23;20838;-73
2023/01/21 03:11:18;;;;;;;18.00;13.97;;;;;;;;;;6209013;23;20378;-73
2023/01/21 03:16:55;;;;;;;21.67;14.70;;;;;;;;;;6208889;23;20951;-75
2023/01/21 03:19:22;;;;;;;19.07;14.20;;;;;;;;;;6209220;23;20352;-74
2023/01/21 03:21:49;;;;;;;21.13;14.30;;;;;;;;;;6210680;23;20355;-74
2023/01/21 03:24:14;;;;;;;19.57;15.30;;;;;;;;;;6210788;23;20876;-74
2023/01/21 03:26:51;;;;;;;20.73;14.73;;;;;;;;;;6211388;23;20383;-74
2023/01/21 03:29:21;;;;;;;21.53;15.63;;;;;;;;;;6183119;23;20147;-74
2023/01/21 03:31:49;;;;;;;19.67;14.53;;;;;;;;;;6209197;23;20398;-75
2023/01/21 03:34:15;;;;;;;21.90;15.50;;;;;;;;;;6208598;23;21013;-73
2023/01/21 03:36:44;;;;;;;21.43;15.83;;;;;;;;;;6209161;23;20391;-74
2023/01/21 03:39:22;;;;;;;20.73;15.50;;;;;;;;;;6208457;23;20375;-74
2023/01/21 03:41:48;;;;;;;19.73;14.33;;;;;;;;;;6208343;23;20366;-76
2023/01/21 03:44:13;;;;;;;20.07;14.23;;;;;;;;;;6209504;23;20364;-76
2023/01/21 03:46:38;;;;;;;22.23;15.20;;;;;;;;;;6182263;23;20172;-76
2023/01/21 03:49:07;;;;;;;22.47;15.03;;;;;;;;;;6208726;23;20147;-74
2023/01/21 03:51:37;;;;;;;18.87;14.07;;;;;;;;;;6209711;23;20155;-74
2023/01/21 03:54:02;;;;;;;21.33;14.63;;;;;;;;;;6209684;23;20363;-73
2023/01/21 03:56:28;;;;;;;20.70;14.73;;;;;;;;;;6180587;23;20436;-74
2023/01/21 03:58:56;;;;;;;18.00;14.10;;;;;;;;;;6179549;23;20159;-73
2023/01/21 04:01:22;;;;;;;23.90;14.93;;;;;;;;;;6208490;23;20183;-73
2023/01/21 04:03:47;;;;;;;18.20;14.47;;;;;;;;;;6209014;23;20405;-74
2023/01/21 04:06:13;;;;;;;23.40;15.80;;;;;;;;;;6203767;23;20187;-73
2023/01/21 04:08:41;;;;;;;19.77;15.57;;;;;;;;;;6179928;23;20270;-73
2023/01/21 04:11:06;;;;;;;18.97;13.20;;;;;;;;;;6208196;23;20355;-74
2023/01/21 04:13:32;;;;;;;20.47;14.50;;;;;;;;;;6209467;23;20422;-74
2023/01/21 04:15:57;;;;;;;20.23;14.77;;;;;;;;;;6194436;23;20194;-73
2023/01/21 04:18:23;;;;;;;19.43;14.80;;;;;;;;;;6207907;23;20155;-74
2023/01/21 04:20:48;;;;;;;22.80;15.63;;;;;;;;;;6208333;23;20193;-74
2023/01/21 04:23:13;;;;;;;19.87;14.80;;;;;;;;;;6210351;23;20151;-74
2023/01/21 04:25:39;;;;;;;19.23;14.10;;;;;;;;;;6209501;23;20164;-74
2023/01/21 04:28:04;;;;;;;23.13;14.43;;;;;;;;;;6209639;23;20143;-74
2023/01/21 04:30:29;;;;;;;18.60;13.57;;;;;;;;;;6204836;23;20148;-74
2023/01/21 04:32:55;;;;;;;18.70;14.47;;;;;;;;;;6208722;23;20853;-74
2023/01/21 04:35:20;;;;;;;19.13;15.10;;;;;;;;;;6207537;23;20189;-73
2023/01/21 04:37:49;;;;;;;19.70;14.40;;;;;;;;;;6205437;23;20156;-74
2023/01/21 04:40:14;;;;;;;19.67;15.37;;;;;;;;;;6208707;23;20172;-74
2023/01/21 04:42:40;;;;;;;19.30;13.40;;;;;;;;;;6208395;23;20417;-73
2023/01/21 04:45:06;;;;;;;20.13;14.80;;;;;;;;;;6206867;23;20275;-73
2023/01/21 04:47:32;;;;;;;18.73;13.10;;;;;;;;;;6206981;23;20847;-74
2023/01/21 04:49:57;;;;;;;18.83;14.07;;;;;;;;;;6208181;23;20364;-73
2023/01/21 04:52:22;;;;;;;19.70;14.87;;;;;;;;;;6208570;23;20144;-73
2023/01/21 04:54:48;;;;;;;17.93;13.60;;;;;;;;;;6209108;23;20287;-74
2023/01/21 04:57:13;;;;;;;18.93;14.00;;;;;;;;;;6208495;23;20152;-73
2023/01/21 04:59:38;;;;;;;22.83;14.97;;;;;;;;;;6205470;23;20180;-73
2023/01/21 05:02:04;;;;;;;17.03;13.20;;;;;;;;;;6204212;23;20527;-74
2023/01/21 05:04:31;;;;;;;19.63;14.13;;;;;;;;;;6208052;23;20155;-73
2023/01/21 05:06:57;;;;;;;17.63;13.67;;;;;;;;;;6207084;23;20151;-73
2023/01/21 05:09:22;;;;;;;18.67;13.73;;;;;;;;;;6206399;23;20525;-73
2023/01/21 05:11:47;;;;;;;22.27;15.20;;;;;;;;;;6205789;23;20571;-73
2023/01/21 05:14:13;;;;;;;20.63;15.90;;;;;;;;;;6208274;23;20148;-73
2023/01/21 05:16:38;;;;;;;19.10;15.30;;;;;;;;;;6206884;23;20701;-73
2023/01/21 05:19:03;;;;;;;21.43;15.73;;;;;;;;;;6207087;23;20148;-73
2023/01/21 05:21:28;;;;;;;22.13;15.90;;;;;;;;;;6210138;23;20167;-74
2023/01/21 05:23:54;;;;;;;22.90;16.97;;;;;;;;;;6207853;23;20148;-74
2023/01/21 05:26:19;;;;;;;19.97;16.00;;;;;;;;;;6206892;23;20176;-74
2023/01/21 05:28:44;;;;;;;20.80;16.70;;;;;;;;;;6207211;23;20206;-74
2023/01/21 05:31:10;;;;;;;23.33;17.10;;;;;;;;;;6208996;23;20151;-74
2023/01/21 05:33:35;;;;;;;21.27;16.27;;;;;;;;;;6211061;23;20144;-74
2023/01/21 05:36:01;;;;;;;23.40;16.87;;;;;;;;;;6206419;23;20159;-75
2023/01/21 05:38:27;;;;;;;23.07;17.20;;;;;;;;;;6207259;23;20140;-74
2023/01/21 05:40:57;;;;;;;21.90;17.03;;;;;;;;;;6205639;23;20521;-74
2023/01/21 05:43:22;;;;;;;23.90;16.70;;;;;;;;;;6208492;23;20370;-75
2023/01/21 05:45:47;;;;;;;29.93;17.60;;;;;;;;;;6210553;23;20453;-74
2023/01/21 05:48:13;;;;;;;24.33;16.70;;;;;;;;;;6209658;23;20147;-73
2023/01/21 05:50:38;;;;;;;23.50;16.70;;;;;;;;;;6210622;23;20148;-74
2023/01/21 05:53:03;;;;;;;22.90;16.90;;;;;;;;;;6210193;23;20152;-73
2023/01/21 05:55:29;;;;;;;26.33;18.77;;;;;;;;;;6208748;23;20626;-73
2023/01/21 05:57:54;;;;;;;21.90;16.80;;;;;;;;;;6208145;23;20151;-74
2023/01/21 06:00:20;;;;;;;23.77;17.80;;;;;;;;;;6210455;23;20163;-74
2023/01/21 06:02:45;;;;;;;23.80;17.20;;;;;;;;;;6209806;23;20144;-73
2023/01/21 06:05:10;;;;;;;23.07;18.00;;;;;;;;;;6210722;23;20606;-72
2023/01/21 06:07:35;;;;;;;21.53;17.10;;;;;;;;;;6206009;23;20151;-72
2023/01/21 06:10:01;;;;;;;24.10;17.57;;;;;;;;;;6207790;23;20591;-73
2023/01/21 06:12:26;;;;;;;21.40;16.30;;;;;;;;;;6209073;23;20144;-73
2023/01/21 06:14:51;;;;;;;24.90;18.07;;;;;;;;;;6206816;23;20182;-73
2023/01/21 06:17:17;;;;;;;21.93;16.00;;;;;;;;;;6212440;23;20136;-73
2023/01/21 06:19:42;;;;;;;24.93;16.20;;;;;;;;;;6210982;23;20704;-73
2023/01/21 06:22:11;;;;;;;24.57;16.47;;;;;;;;;;6211936;23;20144;-73
2023/01/21 06:24:37;;;;;;;21.63;16.90;;;;;;;;;;6209341;23;20147;-73
2023/01/21 06:27:02;;;;;;;19.00;15.63;;;;;;;;;;6211279;23;20715;-73
2023/01/21 06:29:27;;;;;;;22.43;17.17;;;;;;;;;;6211527;23;20579;-74
2023/01/21 06:31:53;;;;;;;22.40;16.73;;;;;;;;;;6184734;23;20238;-73
2023/01/21 06:34:18;;;;;;;21.97;16.23;;;;;;;;;;6209442;23;20218;-73
2023/01/21 06:36:44;;;;;;;23.33;17.20;;;;;;;;;;6181811;23;20247;-74
2023/01/21 06:39:09;;;;;;;21.30;16.80;;;;;;;;;;6208393;23;20147;-74
2023/01/21 06:41:35;;;;;;;23.30;16.50;;;;;;;;;;6182812;23;20562;-74
2023/01/21 06:44:00;;;;;;;21.93;16.93;;;;;;;;;;6205613;23;20147;-74
2023/01/21 06:46:25;;;;;;;24.00;16.80;;;;;;;;;;6207665;23;20183;-73
2023/01/21 06:48:52;;;;;;;26.20;18.30;;;;;;;;;;6209076;23;20243;-73
2023/01/21 06:51:17;;;;;;;26.17;19.57;;;;;;;;;;6184872;23;20589;-73
2023/01/21 06:53:43;;;;;;;24.10;17.47;;;;;;;;;;6207452;23;20367;-72
2023/01/21 06:56:11;;;;;;;23.47;17.53;;;;;;;;;;6200346;22;20669;-72
2023/01/21 06:58:38;;;;;;;23.43;17.10;;;;;;;;;;6175742;23;20226;-72
2023/01/21 07:01:04;;;;;;;25.70;18.00;;;;;;;;;;6176650;23;20501;-72
2023/01/21 07:03:34;;;;;;;24.97;18.70;;;;;;;;;;6204870;23;20398;-72
2023/01/21 07:06:05;;;;;;;22.47;16.93;;;;;;;;;;6180530;23;20190;-72
2023/01/21 07:08:30;;;;;;;20.17;16.07;;;;;;;;;;6207072;23;20771;-72
2023/01/21 07:10:55;;;;;;;20.70;16.27;;;;;;;;;;6209385;23;20371;-74
2023/01/21 07:13:22;;;;;;;22.87;17.87;;;;;;;;;;6210219;23;20147;-74
2023/01/21 07:15:53;;;;;;;24.67;16.50;;;;;;;;;;6181724;23;20179;-74
2023/01/21 07:18:20;;;;;;;22.27;16.80;;;;;;;;;;6209829;23;20387;-74
2023/01/21 07:20:46;;;;;;;25.40;16.50;;;;;;;;;;6206881;23;20415;-74
2023/01/21 07:23:16;;;;;;;22.17;16.50;;;;;;;;;;6182067;23;20470;-74
2023/01/21 07:25:43;;;;;;;23.03;17.07;;;;;;;;;;6211272;23;20688;-74
2023/01/21 07:28:13;;;;;;;21.10;16.87;;;;;;;;;;6207396;23;20371;-74
2023/01/21 07:30:38;;;;;;;19.83;15.27;;;;;;;;;;6207251;23;20409;-74
2023/01/21 07:33:14;;;;;;;19.20;14.37;;;;;;;;;;6206582;23;20363;-74
2023/01/21 07:35:42;;;;;;;19.30;15.20;;;;;;;;;;6207526;23;20168;-74
2023/01/21 07:38:09;;;;;;;18.43;14.80;;;;;;;;;;6206235;23;20917;-73
2023/01/21 07:40:37;;;;;;;20.00;15.70;;;;;;;;;;6182373;23;20872;-73
2023/01/21 07:43:26;;;;;;;19.83;15.73;;;;;;;;;;6181129;23;20701;-74
2023/01/21 07:46:35;;;;;;;21.10;15.57;;;;;;;;;;6181513;23;20399;-74
2023/01/21 07:49:15;;;;;;;19.20;14.90;;;;;;;;;;6205807;23;20391;-73
2023/01/21 07:51:44;;;;;;;22.07;16.47;;;;;;;;;;6207391;23;20406;-74
2023/01/21 07:57:05;;;;;;;20.40;17.77;;;;;;;;;;6189566;23;20852;-73
2023/01/21 07:59:43;;;;;;;;;;;;;;;;;;;;;
2023/01/21 08:02:10;;;;;;;21.43;17.10;;;;;;;;;;6206446;23;20439;-73
2023/01/21 08:04:38;;;;;;;20.67;16.00;;;;;;;;;;6179660;23;20367;-74
2023/01/21 08:07:08;;;;;;;21.17;16.00;;;;;;;;;;6206651;23;20359;-73
2023/01/21 08:09:36;;;;;;;18.93;15.10;;;;;;;;;;6184091;23;20406;-74
2023/01/21 08:12:05;;;;;;;18.03;14.07;;;;;;;;;;6210292;23;20363;-74
2023/01/21 08:14:31;;;;;;;16.83;13.10;;;;;;;;;;6181927;23;20383;-73
2023/01/21 08:16:59;;;;;;;15.80;12.60;;;;;;;;;;6181618;23;20931;-74
2023/01/21 08:19:27;;;;;;;16.47;13.17;;;;;;;;;;6182896;23;20201;-74
2023/01/21 08:21:52;;;;;;;16.60;13.03;;;;;;;;;;6208730;23;20993;-74
2023/01/21 08:24:21;;;;;;;17.23;13.83;;;;;;;;;;6205757;23;20363;-73
2023/01/21 08:26:48;;;;;;;16.53;12.30;;;;;;;;;;6207094;23;20645;-73
2023/01/21 08:29:15;;;;;;;16.57;13.20;;;;;;;;;;6193820;23;20370;-73
2023/01/21 08:31:41;;;;;;;19.83;13.90;;;;;;;;;;6205224;23;20429;-74
2023/01/21 08:34:06;;;;;;;17.10;13.70;;;;;;;;;;6203012;23;20371;-74
2023/01/21 08:36:41;;;;;;;17.93;13.67;;;;;;;;;;6211115;23;20504;-73
2023/01/21 08:39:06;;;;;;;16.10;12.93;;;;;;;;;;6179261;23;20255;-74
2023/01/21 08:41:31;;;;;;;16.93;12.47;;;;;;;;;;6205308;23;20450;-74
2023/01/21 08:43:57;;;;;;;18.00;13.40;;;;;;;;;;6179506;23;20158;-74
2023/01/21 08:46:22;;;;;;;14.87;12.10;;;;;;;;;;6179321;23;20218;-74
2023/01/21 08:48:47;;;;;;;20.30;14.07;;;;;;;;;;6171739;23;20148;-73
2023/01/21 08:51:13;;;;;;;19.67;14.93;;;;;;;;;;6178722;23;20152;-73
2023/01/21 08:53:38;;;;;;;19.40;14.83;;;;;;;;;;6177401;23;20238;-72
2023/01/21 08:56:04;;;;;;;18.47;14.73;;;;;;;;;;6181482;23;20171;-73
2023/01/21 08:58:30;;;;;;;18.43;13.50;;;;;;;;;;6179564;23;20182;-73
2023/01/21 09:00:55;;;;;;;20.63;14.70;;;;;;;;;;6207754;23;20171;-74
2023/01/21 09:03:20;;;;;;;15.23;12.20;;;;;;;;;;6207416;23;20846;-73
2023/01/21 09:05:46;;;;;;;17.70;13.93;;;;;;;;;;6206818;23;20190;-73
2023/01/21 09:08:11;;;;;;;18.83;13.60;;;;;;;;;;6181351;23;20520;-73
2023/01/21 09:13:21;;;;;;;18.90;13.40;;;;;;;;;;6207026;23;20247;-73
2023/01/21 09:15:46;;;;;;;19.20;13.13;;;;;;;;;;6182208;23;20484;-74
2023/01/21 09:18:11;;;;;;;19.30;13.90;;;;;;;;;;6206318;23;20155;-72
2023/01/21 09:20:38;;;;;;;16.20;13.30;;;;;;;;;;6181846;23;20713;-73
2023/01/21 09:23:25;;;;;;;16.97;13.73;;;;;;;;;;6178389;23;20151;-73
2023/01/21 09:25:55;;;;;;;19.07;13.13;;;;;;;;;;6179191;23;20395;-73
2023/01/21 09:28:21;;;;;;;17.07;13.43;;;;;;;;;;6206043;23;20386;-73
2023/01/21 09:30:47;;;;;;;17.43;13.83;;;;;;;;;;6183379;23;20378;-73
2023/01/21 09:33:13;;;;;;;15.80;12.97;;;;;;;;;;6209356;23;20367;-73
2023/01/21 09:35:38;;;;;;;15.50;13.37;;;;;;;;;;6205038;23;20171;-73
2023/01/21 09:38:03;;;;;;;16.53;13.10;;;;;;;;;;6203969;23;20692;-73
2023/01/21 09:40:29;;;;;;;16.00;12.47;;;;;;;;;;6182949;23;20172;-73
2023/01/21 09:42:54;;;;;;;17.10;13.23;;;;;;;;;;6204246;23;20231;-73
2023/01/21 09:45:20;;;;;;;17.23;13.50;;;;;;;;;;6175375;23;20168;-73
2023/01/21 09:47:47;;;;;;;16.70;12.43;;;;;;;;;;6206994;23;20143;-74
2023/01/21 09:50:15;;;;;;;15.80;12.93;;;;;;;;;;6182662;23;20152;-73
2023/01/21 09:52:41;;;;;;;15.83;12.50;;;;;;;;;;6177151;23;20378;-73
2023/01/21 09:55:14;;;;;;;14.90;12.50;;;;;;;;;;6184074;23;20403;-74
2023/01/21 09:57:47;;;;;;;15.63;11.70;;;;;;;;;;6210472;23;20262;-74
2023/01/21 10:00:24;;;;;;;13.77;11.70;;;;;;;;;;6212875;23;20971;-74
2023/01/21 10:02:56;;;;;;;15.23;12.13;;;;;;;;;;6185915;23;20375;-74
2023/01/21 10:05:32;;;;;;;12.77;10.53;;;;;;;;;;6211013;23;20861;-73
2023/01/21 10:08:05;;;;;;;14.00;11.40;;;;;;;;;;6182203;23;20833;-73
2023/01/21 10:10:40;;;;;;;14.93;10.87;;;;;;;;;;6210104;23;20869;-73
2023/01/21 10:13:24;;;;;;;13.73;11.50;;;;;;;;;;6210297;23;20359;-74
2023/01/21 10:16:08;;;;;;;14.00;11.63;;;;;;;;;;6184979;23;20423;-74
2023/01/21 10:18:35;;;;;;;13.40;10.70;;;;;;;;;;6210702;23;20367;-73
2023/01/21 10:21:19;;;;;;;14.93;12.57;;;;;;;;;;6211643;23;20419;-73
2023/01/21 10:23:48;;;;;;;14.80;12.10;;;;;;;;;;6206060;23;20363;-73
2023/01/21 10:26:14;;;;;;;13.33;11.60;;;;;;;;;;6210993;23;20394;-73
2023/01/21 10:28:41;;;;;;;11.47;10.27;;;;;;;;;;6181364;23;20390;-73
2023/01/21 10:31:25;;;;;;;10.90;9.33;;;;;;;;;;6203400;23;20377;-74
2023/01/21 10:33:50;;;;;;;11.40;8.70;;;;;;;;;;6182562;23;20363;-74
2023/01/21 10:36:34;;;;;;;12.20;10.00;;;;;;;;;;6208142;23;20922;-74
2023/01/21 10:39:14;;;;;;;12.33;9.73;;;;;;;;;;6203534;23;20143;-74
2023/01/21 10:41:40;;;;;;;11.90;9.60;;;;;;;;;;6209335;23;20413;-74
2023/01/21 10:44:28;;;;;;;10.20;8.10;;;;;;;;;;6184251;23;20686;-74
2023/01/21 10:47:12;;;;;;;10.03;8.53;;;;;;;;;;6152453;23;20255;-75
2023/01/21 10:49:47;;;;;;;9.20;7.40;;;;;;;;;;6208527;23;20371;-75
2023/01/21 10:52:30;;;;;;;9.20;8.30;;;;;;;;;;6180009;23;20404;-74
2023/01/21 10:54:55;;;;;;;8.07;7.10;;;;;;;;;;6181943;23;20395;-75
2023/01/21 10:57:32;;;;;;;7.87;7.10;;;;;;;;;;6208968;23;20445;-74
2023/01/21 10:59:59;;;;;;;7.10;6.13;;;;;;;;;;6209415;23;20234;-75
2023/01/21 11:02:31;;;;;;;6.83;5.53;;;;;;;;;;6183135;23;20845;-74
2023/01/21 11:05:00;;;;;;;8.00;5.60;;;;;;;;;;6206081;23;20486;-74
2023/01/21 11:07:28;;;;;;;6.47;5.53;;;;;;;;;;6182077;23;20383;-75
2023/01/21 11:09:54;;;;;;;7.57;6.10;;;;;;;;;;6206617;23;20371;-74
2023/01/21 11:12:20;;;;;;;6.17;5.57;;;;;;;;;;6208827;23;20899;-75
2023/01/21 11:15:00;;;;;;;5.50;5.00;;;;;;;;;;6177405;23;20151;-74
2023/01/21 11:17:33;;;;;;;6.00;5.40;;;;;;;;;;6205050;23;20822;-75
2023/01/21 11:19:59;;;;;;;5.50;4.53;;;;;;;;;;6176831;23;20450;-74
2023/01/21 11:22:27;;;;;;;6.50;5.40;;;;;;;;;;6198472;23;20372;-75
2023/01/21 11:24:53;;;;;;;5.30;4.80;;;;;;;;;;6178465;23;20417;-75
2023/01/21 11:27:20;;;;;;;5.87;5.27;;;;;;;;;;6207909;23;20901;-77
2023/01/21 11:29:46;;;;;;;5.57;5.07;;;;;;;;;;6184025;23;20657;-75
2023/01/21 11:32:17;;;;;;;6.33;5.03;;;;;;;;;;6209448;23;20445;-75
2023/01/21 11:34:43;;;;;;;5.20;4.40;;;;;;;;;;6177775;23;20379;-75
2023/01/21 11:37:17;;;;;;;5.23;4.40;;;;;;;;;;6208137;23;20394;-75
2023/01/21 11:39:49;;;;;;;4.33;3.93;;;;;;;;;;6182127;23;20690;-76
2023/01/21 11:42:16;;;;;;;3.60;2.93;;;;;;;;;;6210493;23;20363;-75
2023/01/21 11:45:00;;;;;;;4.23;3.13;;;;;;;;;;6184980;23;20859;-76
2023/01/21 11:47:44;;;;;;;2.77;2.57;;;;;;;;;;6184165;23;20509;-76
2023/01/21 11:50:11;;;;;;;5.30;3.90;;;;;;;;;;6211575;23;20845;-75
2023/01/21 11:52:36;;;;;;;2.83;2.47;;;;;;;;;;6210801;23;20842;-75
2023/01/21 11:55:02;;;;;;;4.37;2.53;;;;;;;;;;6210766;23;20402;-76
2023/01/21 11:57:29;;;;;;;3.87;2.40;;;;;;;;;;6196315;23;20388;-75
2023/01/21 11:59:58;;;;;;;2.83;2.10;;;;;;;;;;6211323;23;20426;-76
2023/01/21 12:02:28;;;;;;;2.40;2.03;;;;;;;;;;6210178;23;20850;-76
2023/01/21 12:05:01;;;;;;;2.20;2.00;;;;;;;;;;6234822;23;20403;-76
2023/01/21 12:07:28;;;;;;;3.40;2.70;;;;;;;;;;6210547;23;20453;-76
2023/01/21 12:10:00;;;;;;;4.90;3.27;;;;;;;;;;6210004;23;21284;-76
2023/01/21 12:12:30;;;;;;;3.60;3.13;;;;;;;;;;6206919;23;20893;-76
2023/01/21 12:15:02;;;;;;;3.57;2.93;;;;;;;;;;6211331;23;20928;-76
2023/01/21 12:17:38;;;;;;;2.80;2.60;;;;;;;;;;6209665;23;20367;-76
2023/01/21 12:20:07;;;;;;;2.97;2.20;;;;;;;;;;6211447;23;20429;-76
2023/01/21 12:22:51;;;;;;;3.23;2.93;;;;;;;;;;6208433;23;20436;-76
2023/01/21 12:25:30;;;;;;;3.07;2.77;;;;;;;;;;6211117;23;20418;-76
2023/01/21 12:28:05;;;;;;;3.30;2.70;;;;;;;;;;6208439;23;20413;-76
2023/01/21 12:30:40;;;;;;;4.30;2.83;;;;;;;;;;6212265;23;20354;-76
2023/01/21 12:33:17;;;;;;;3.43;3.13;;;;;;;;;;6209712;23;20816;-76
2023/01/21 12:36:06;;;;;;;4.07;3.10;;;;;;;;;;6213922;23;20454;-76
2023/01/21 12:38:35;;;;;;;3.50;3.17;;;;;;;;;;6202802;23;20387;-76
2023/01/21 12:41:00;;;;;;;4.27;3.30;;;;;;;;;;6238888;23;20925;-76
2023/01/21 12:43:29;;;;;;;3.70;3.20;;;;;;;;;;6208351;23;20371;-76
2023/01/21 12:45:57;;;;;;;3.50;3.20;;;;;;;;;;6208070;23;20164;-77
2023/01/21 12:48:29;;;;;;;4.80;3.00;;;;;;;;;;6211153;23;20367;-76
2023/01/21 12:50:59;;;;;;;3.80;3.40;;;;;;;;;;6211061;23;20387;-76
2023/01/21 12:53:30;;;;;;;4.73;4.23;;;;;;;;;;6206418;23;20379;-76
2023/01/21 12:56:13;;;;;;;3.23;2.93;;;;;;;;;;6208167;23;20387;-76
2023/01/21 12:58:48;;;;;;;4.10;3.70;;;;;;;;;;6206059;23;20363;-76
2023/01/21 13:01:18;;;;;;;4.27;3.50;;;;;;;;;;6209620;23;20487;-76
2023/01/21 13:04:16;;;;;;;3.17;2.73;;;;;;;;;;6207361;23;20403;-76
2023/01/21 13:07:10;;;;;;;4.03;3.17;;;;;;;;;;6159766;23;20434;-76
2023/01/21 13:09:38;;;;;;;3.20;2.90;;;;;;;;;;6183723;23;20454;-72
2023/01/21 13:12:08;;;;;;;4.10;3.30;;;;;;;;;;6180853;23;20850;-72
2023/01/21 13:14:36;;;;;;;3.30;3.00;;;;;;;;;;6209004;23;20394;-72
2023/01/21 13:17:08;;;;;;;3.13;2.87;;;;;;;;;;6206780;23;20371;-72
2023/01/21 13:19:33;;;;;;;3.77;3.13;;;;;;;;;;6175276;23;21218;-72
2023/01/21 13:22:12;;;;;;;3.90;3.50;;;;;;;;;;6177244;23;20427;-72
2023/01/21 13:24:56;;;;;;;5.60;3.93;;;;;;;;;;6178659;23;20145;-72
2023/01/21 13:27:26;;;;;;;5.03;4.03;;;;;;;;;;6149531;23;20759;-72
2023/01/21 13:30:10;;;;;;;3.50;2.90;;;;;;;;;;6177144;23;20384;-71
2023/01/21 13:32:52;;;;;;;3.80;2.87;;;;;;;;;;6173671;23;20392;-73
2023/01/21 13:35:23;;;;;;;3.30;3.00;;;;;;;;;;6171503;23;20717;-73
2023/01/21 13:37:51;;;;;;;4.23;3.63;;;;;;;;;;6176593;23;20360;-72
2023/01/21 13:40:23;;;;;;;3.10;2.80;;;;;;;;;;6174573;23;20424;-72
2023/01/21 13:42:54;;;;;;;4.20;3.00;;;;;;;;;;6167779;23;20486;-72
2023/01/21 13:45:23;;;;;;;3.50;3.20;;;;;;;;;;6172519;23;20365;-72
2023/01/21 13:48:07;;;;;;;4.33;3.10;;;;;;;;;;6176078;23;20372;-72
2023/01/21 13:50:38;;;;;;;4.37;3.40;;;;;;;;;;6175149;23;20395;-72
2023/01/21 13:53:07;;;;;;;3.80;3.30;;;;;;;;;;6175987;23;20447;-72
2023/01/21 13:55:35;;;;;;;3.73;2.90;;;;;;;;;;6175304;23;20378;-72
2023/01/21 13:58:11;;;;;;;3.23;2.93;;;;;;;;;;6176920;23;20376;-72
2023/01/21 14:00:40;;;;;;;3.50;3.00;;;;;;;;;;6170497;23;20433;-74
2023/01/21 14:03:11;;;;;;;4.20;2.90;;;;;;;;;;6173159;23;20410;-74
2023/01/21 14:06:09;;;;;;;7.00;3.23;;;;;;;;;;6177706;23;20375;-76
2023/01/21 14:08:39;;;;;;;3.10;2.90;;;;;;;;;;6103163;23;20855;-75
2023/01/21 14:11:25;;;;;;;3.80;2.87;;;;;;;;;;6175933;23;20407;-76
2023/01/21 14:14:09;;;;;;;3.87;3.20;;;;;;;;;;6178414;23;20388;-75
2023/01/21 14:16:43;;;;;;;3.43;3.13;;;;;;;;;;6151738;23;20397;-76
2023/01/21 14:19:31;;;;;;;3.73;2.83;;;;;;;;;;6177195;23;20391;-74
2023/01/21 14:22:02;;;;;;;4.53;3.20;;;;;;;;;;6152298;23;20419;-74
2023/01/21 14:24:31;;;;;;;3.50;3.07;;;;;;;;;;6178931;23;20878;-76
2023/01/21 14:27:08;;;;;;;3.40;2.90;;;;;;;;;;6175915;23;20368;-73
2023/01/21 14:29:45;;;;;;;3.17;2.80;;;;;;;;;;6175984;23;20466;-74
2023/01/21 14:32:29;;;;;;;4.30;3.77;;;;;;;;;;6148612;23;20383;-75
2023/01/21 14:34:55;;;;;;;4.00;3.53;;;;;;;;;;6174216;23;20368;-74
2023/01/21 14:37:26;;;;;;;4.53;4.03;;;;;;;;;;6179069;23;20426;-75
2023/01/21 14:40:04;;;;;;;5.40;4.40;;;;;;;;;;6152713;23;20180;-76
2023/01/21 14:42:40;;;;;;;5.67;4.80;;;;;;;;;;6172470;23;20368;-75
2023/01/21 14:45:07;;;;;;;5.93;4.53;;;;;;;;;;6150854;23;20375;-76
2023/01/21 14:47:38;;;;;;;5.60;5.10;;;;;;;;;;6153088;23;20453;-75
2023/01/21 14:50:04;;;;;;;6.57;5.40;;;;;;;;;;6179027;23;20821;-75